sensor_id;sensor_type;location;lat;lon;timestamp;P1;durP1;ratioP1;P2;durP2;ratioP2
75584;SDS011;64162;53.508;10.476;2024-02-21T00:02:00;24.65;;;8.32;;
75584;SDS011;64162;53.508;10.476;2024-02-21T00:04:27;22.98;;;8.85;;
75584;SDS011;64162;53.508;10.476;2024-02-21T00:06:54;28.90;;;9.00;;
75584;SDS011;64162;53.508;10.476;2024-02-21T00:09:23;31.33;;;10.07;;
75584;SDS011;64162;53.508;10.476;2024-02-21T00:11:49;18.25;;;7.60;;
75584;SDS011;64162;53.508;10.476;2024-02-21T00:14:18;21.08;;;7.82;;
75584;SDS011;64162;53.508;10.476;2024-02-21T00:16:44;22.98;;;8.05;;
75584;SDS011;64162;53.508;10.476;2024-02-21T00:19:11;19.55;;;8.40;;
75584;SDS011;64162;53.508;10.476;2024-02-21T00:21:38;28.45;;;9.25;;
75584;SDS011;64162;53.508;10.476;2024-02-21T00:24:08;23.60;;;8.85;;
75584;SDS011;64162;53.508;10.476;2024-02-21T00:26:35;15.40;;;5.35;;
75584;SDS011;64162;53.508;10.476;2024-02-21T00:29:01;23.15;;;8.32;;
75584;SDS011;64162;53.508;10.476;2024-02-21T00:31:29;20.40;;;8.13;;
75584;SDS011;64162;53.508;10.476;2024-02-21T00:33:56;25.67;;;8.23;;
75584;SDS011;64162;53.508;10.476;2024-02-21T00:36:24;26.02;;;10.10;;
75584;SDS011;64162;53.508;10.476;2024-02-21T00:38:50;22.80;;;8.18;;
75584;SDS011;64162;53.508;10.476;2024-02-21T00:41:17;25.95;;;8.82;;
75584;SDS011;64162;53.508;10.476;2024-02-21T00:43:44;30.50;;;10.07;;
75584;SDS011;64162;53.508;10.476;2024-02-21T00:46:10;23.58;;;8.57;;
75584;SDS011;64162;53.508;10.476;2024-02-21T00:48:40;28.42;;;9.65;;
75584;SDS011;64162;53.508;10.476;2024-02-21T00:51:14;25.83;;;8.68;;
75584;SDS011;64162;53.508;10.476;2024-02-21T00:53:43;25.00;;;9.05;;
75584;SDS011;64162;53.508;10.476;2024-02-21T00:56:10;27.45;;;8.20;;
75584;SDS011;64162;53.508;10.476;2024-02-21T00:58:39;22.50;;;9.15;;
75584;SDS011;64162;53.508;10.476;2024-02-21T01:01:06;22.02;;;9.18;;
75584;SDS011;64162;53.508;10.476;2024-02-21T01:03:38;17.17;;;8.50;;
75584;SDS011;64162;53.508;10.476;2024-02-21T01:08:33;19.45;;;8.43;;
75584;SDS011;64162;53.508;10.476;2024-02-21T01:11:00;19.70;;;8.02;;
75584;SDS011;64162;53.508;10.476;2024-02-21T01:13:26;18.63;;;7.53;;
75584;SDS011;64162;53.508;10.476;2024-02-21T01:15:53;17.02;;;8.10;;
75584;SDS011;64162;53.508;10.476;2024-02-21T01:18:20;23.55;;;7.53;;
75584;SDS011;64162;53.508;10.476;2024-02-21T01:20:47;15.13;;;6.43;;
75584;SDS011;64162;53.508;10.476;2024-02-21T01:23:22;14.35;;;5.28;;
75584;SDS011;64162;53.508;10.476;2024-02-21T01:25:49;17.08;;;6.97;;
75584;SDS011;64162;53.508;10.476;2024-02-21T01:28:17;23.90;;;9.25;;
75584;SDS011;64162;53.508;10.476;2024-02-21T01:30:48;20.25;;;9.80;;
75584;SDS011;64162;53.508;10.476;2024-02-21T01:33:14;23.05;;;9.35;;
75584;SDS011;64162;53.508;10.476;2024-02-21T01:35:41;19.92;;;8.05;;
75584;SDS011;64162;53.508;10.476;2024-02-21T01:38:08;21.67;;;7.28;;
75584;SDS011;64162;53.508;10.476;2024-02-21T01:40:34;25.33;;;9.77;;
75584;SDS011;64162;53.508;10.476;2024-02-21T01:43:01;22.08;;;10.30;;
75584;SDS011;64162;53.508;10.476;2024-02-21T01:45:30;26.08;;;10.45;;
75584;SDS011;64162;53.508;10.476;2024-02-21T01:47:56;27.25;;;10.27;;
75584;SDS011;64162;53.508;10.476;2024-02-21T01:50:23;20.80;;;9.55;;
75584;SDS011;64162;53.508;10.476;2024-02-21T01:52:50;19.15;;;7.38;;
75584;SDS011;64162;53.508;10.476;2024-02-21T01:55:20;31.77;;;9.90;;
75584;SDS011;64162;53.508;10.476;2024-02-21T01:57:48;24.35;;;9.82;;
75584;SDS011;64162;53.508;10.476;2024-02-21T02:00:14;25.95;;;10.70;;
75584;SDS011;64162;53.508;10.476;2024-02-21T02:02:42;25.88;;;10.65;;
75584;SDS011;64162;53.508;10.476;2024-02-21T02:05:09;27.25;;;9.15;;
75584;SDS011;64162;53.508;10.476;2024-02-21T02:07:37;26.08;;;10.45;;
75584;SDS011;64162;53.508;10.476;2024-02-21T02:10:03;21.20;;;8.15;;
75584;SDS011;64162;53.508;10.476;2024-02-21T02:12:31;21.30;;;9.20;;
75584;SDS011;64162;53.508;10.476;2024-02-21T02:15:02;20.17;;;8.77;;
75584;SDS011;64162;53.508;10.476;2024-02-21T02:17:31;18.48;;;9.65;;
75584;SDS011;64162;53.508;10.476;2024-02-21T02:20:00;14.05;;;6.55;;
75584;SDS011;64162;53.508;10.476;2024-02-21T02:22:28;21.73;;;8.93;;
75584;SDS011;64162;53.508;10.476;2024-02-21T02:24:55;22.17;;;8.45;;
75584;SDS011;64162;53.508;10.476;2024-02-21T02:27:22;22.52;;;9.05;;
75584;SDS011;64162;53.508;10.476;2024-02-21T02:29:49;21.35;;;9.48;;
75584;SDS011;64162;53.508;10.476;2024-02-21T02:32:16;25.17;;;9.75;;
75584;SDS011;64162;53.508;10.476;2024-02-21T02:34:42;22.83;;;10.02;;
75584;SDS011;64162;53.508;10.476;2024-02-21T02:37:12;21.83;;;10.00;;
75584;SDS011;64162;53.508;10.476;2024-02-21T02:39:39;25.23;;;10.15;;
75584;SDS011;64162;53.508;10.476;2024-02-21T02:42:05;24.25;;;9.70;;
75584;SDS011;64162;53.508;10.476;2024-02-21T02:44:32;26.25;;;9.32;;
75584;SDS011;64162;53.508;10.476;2024-02-21T02:46:59;24.58;;;10.43;;
75584;SDS011;64162;53.508;10.476;2024-02-21T02:53:39;21.55;;;9.38;;
75584;SDS011;64162;53.508;10.476;2024-02-21T02:56:06;23.10;;;8.82;;
75584;SDS011;64162;53.508;10.476;2024-02-21T02:58:37;25.73;;;9.18;;
75584;SDS011;64162;53.508;10.476;2024-02-21T03:01:06;25.70;;;9.52;;
75584;SDS011;64162;53.508;10.476;2024-02-21T03:03:33;24.02;;;12.05;;
75584;SDS011;64162;53.508;10.476;2024-02-21T03:05:59;25.08;;;10.18;;
75584;SDS011;64162;53.508;10.476;2024-02-21T03:08:27;24.73;;;10.10;;
75584;SDS011;64162;53.508;10.476;2024-02-21T03:10:53;26.02;;;10.50;;
75584;SDS011;64162;53.508;10.476;2024-02-21T03:13:20;20.45;;;10.32;;
75584;SDS011;64162;53.508;10.476;2024-02-21T03:15:47;15.40;;;6.68;;
75584;SDS011;64162;53.508;10.476;2024-02-21T03:18:15;26.17;;;10.10;;
75584;SDS011;64162;53.508;10.476;2024-02-21T03:20:42;25.67;;;8.95;;
75584;SDS011;64162;53.508;10.476;2024-02-21T03:23:09;32.00;;;11.73;;
75584;SDS011;64162;53.508;10.476;2024-02-21T03:25:38;21.17;;;9.35;;
75584;SDS011;64162;53.508;10.476;2024-02-21T03:28:05;29.67;;;11.48;;
75584;SDS011;64162;53.508;10.476;2024-02-21T03:30:32;26.42;;;12.10;;
75584;SDS011;64162;53.508;10.476;2024-02-21T03:33:00;21.63;;;8.98;;
75584;SDS011;64162;53.508;10.476;2024-02-21T03:35:30;20.88;;;8.48;;
75584;SDS011;64162;53.508;10.476;2024-02-21T03:37:57;19.52;;;9.60;;
75584;SDS011;64162;53.508;10.476;2024-02-21T03:40:23;18.35;;;7.78;;
75584;SDS011;64162;53.508;10.476;2024-02-21T03:42:50;31.85;;;12.70;;
75584;SDS011;64162;53.508;10.476;2024-02-21T03:45:19;29.63;;;11.98;;
75584;SDS011;64162;53.508;10.476;2024-02-21T03:47:46;21.50;;;9.13;;
75584;SDS011;64162;53.508;10.476;2024-02-21T03:50:13;32.78;;;11.15;;
75584;SDS011;64162;53.508;10.476;2024-02-21T03:52:39;26.70;;;11.35;;
75584;SDS011;64162;53.508;10.476;2024-02-21T03:55:08;25.23;;;10.05;;
75584;SDS011;64162;53.508;10.476;2024-02-21T03:57:35;21.20;;;9.13;;
75584;SDS011;64162;53.508;10.476;2024-02-21T04:00:02;27.27;;;10.98;;
75584;SDS011;64162;53.508;10.476;2024-02-21T04:02:32;25.80;;;8.65;;
75584;SDS011;64162;53.508;10.476;2024-02-21T04:04:59;19.90;;;7.25;;
75584;SDS011;64162;53.508;10.476;2024-02-21T04:07:26;32.13;;;10.38;;
75584;SDS011;64162;53.508;10.476;2024-02-21T04:09:53;28.73;;;10.70;;
75584;SDS011;64162;53.508;10.476;2024-02-21T04:12:20;22.52;;;10.27;;
75584;SDS011;64162;53.508;10.476;2024-02-21T04:14:53;25.45;;;10.20;;
75584;SDS011;64162;53.508;10.476;2024-02-21T04:17:20;18.65;;;7.95;;
75584;SDS011;64162;53.508;10.476;2024-02-21T04:19:47;27.40;;;10.32;;
75584;SDS011;64162;53.508;10.476;2024-02-21T04:22:13;29.08;;;10.10;;
75584;SDS011;64162;53.508;10.476;2024-02-21T04:24:40;22.73;;;8.73;;
75584;SDS011;64162;53.508;10.476;2024-02-21T04:27:07;19.17;;;8.38;;
75584;SDS011;64162;53.508;10.476;2024-02-21T04:29:36;15.52;;;7.18;;
75584;SDS011;64162;53.508;10.476;2024-02-21T04:32:09;18.77;;;7.97;;
75584;SDS011;64162;53.508;10.476;2024-02-21T04:34:36;27.70;;;10.95;;
75584;SDS011;64162;53.508;10.476;2024-02-21T04:37:03;23.85;;;8.77;;
75584;SDS011;64162;53.508;10.476;2024-02-21T04:39:30;26.85;;;11.00;;
75584;SDS011;64162;53.508;10.476;2024-02-21T04:41:57;23.02;;;7.75;;
75584;SDS011;64162;53.508;10.476;2024-02-21T04:44:24;28.98;;;11.00;;
75584;SDS011;64162;53.508;10.476;2024-02-21T04:46:50;21.80;;;9.90;;
75584;SDS011;64162;53.508;10.476;2024-02-21T04:49:21;18.58;;;7.90;;
75584;SDS011;64162;53.508;10.476;2024-02-21T04:51:47;23.27;;;10.75;;
75584;SDS011;64162;53.508;10.476;2024-02-21T04:54:14;18.35;;;8.00;;
75584;SDS011;64162;53.508;10.476;2024-02-21T04:56:41;24.90;;;7.68;;
75584;SDS011;64162;53.508;10.476;2024-02-21T04:59:08;20.27;;;8.55;;
75584;SDS011;64162;53.508;10.476;2024-02-21T05:01:34;28.17;;;10.40;;
75584;SDS011;64162;53.508;10.476;2024-02-21T05:04:01;23.30;;;9.75;;
75584;SDS011;64162;53.508;10.476;2024-02-21T05:06:36;21.70;;;9.82;;
75584;SDS011;64162;53.508;10.476;2024-02-21T05:09:05;16.08;;;8.43;;
75584;SDS011;64162;53.508;10.476;2024-02-21T05:11:41;17.67;;;7.70;;
75584;SDS011;64162;53.508;10.476;2024-02-21T05:14:08;15.93;;;7.15;;
75584;SDS011;64162;53.508;10.476;2024-02-21T05:16:35;19.90;;;8.73;;
75584;SDS011;64162;53.508;10.476;2024-02-21T05:19:04;19.65;;;8.07;;
75584;SDS011;64162;53.508;10.476;2024-02-21T05:21:34;21.73;;;9.20;;
75584;SDS011;64162;53.508;10.476;2024-02-21T05:24:03;20.55;;;8.20;;
75584;SDS011;64162;53.508;10.476;2024-02-21T05:26:30;18.90;;;7.15;;
75584;SDS011;64162;53.508;10.476;2024-02-21T05:28:56;19.75;;;9.65;;
75584;SDS011;64162;53.508;10.476;2024-02-21T05:31:23;15.27;;;7.25;;
75584;SDS011;64162;53.508;10.476;2024-02-21T05:33:50;12.18;;;6.15;;
75584;SDS011;64162;53.508;10.476;2024-02-21T05:36:19;20.45;;;8.23;;
75584;SDS011;64162;53.508;10.476;2024-02-21T05:38:45;16.40;;;7.65;;
75584;SDS011;64162;53.508;10.476;2024-02-21T05:41:15;20.17;;;7.53;;
75584;SDS011;64162;53.508;10.476;2024-02-21T05:43:41;14.52;;;7.18;;
75584;SDS011;64162;53.508;10.476;2024-02-21T05:46:08;14.80;;;5.88;;
75584;SDS011;64162;53.508;10.476;2024-02-21T05:48:34;21.83;;;7.55;;
75584;SDS011;64162;53.508;10.476;2024-02-21T05:51:02;11.55;;;6.53;;
75584;SDS011;64162;53.508;10.476;2024-02-21T05:53:29;15.77;;;6.97;;
75584;SDS011;64162;53.508;10.476;2024-02-21T05:56:00;19.52;;;7.85;;
75584;SDS011;64162;53.508;10.476;2024-02-21T05:58:27;8.80;;;4.60;;
75584;SDS011;64162;53.508;10.476;2024-02-21T06:00:54;16.63;;;7.53;;
75584;SDS011;64162;53.508;10.476;2024-02-21T06:03:21;13.70;;;6.25;;
75584;SDS011;64162;53.508;10.476;2024-02-21T06:06:00;14.73;;;6.50;;
75584;SDS011;64162;53.508;10.476;2024-02-21T06:08:26;16.02;;;6.05;;
75584;SDS011;64162;53.508;10.476;2024-02-21T06:10:53;13.65;;;7.00;;
75584;SDS011;64162;53.508;10.476;2024-02-21T06:13:21;14.25;;;7.18;;
75584;SDS011;64162;53.508;10.476;2024-02-21T06:15:48;19.48;;;7.75;;
75584;SDS011;64162;53.508;10.476;2024-02-21T06:18:17;17.95;;;7.72;;
75584;SDS011;64162;53.508;10.476;2024-02-21T06:20:44;14.98;;;6.65;;
75584;SDS011;64162;53.508;10.476;2024-02-21T06:23:12;15.25;;;6.30;;
75584;SDS011;64162;53.508;10.476;2024-02-21T06:25:39;15.77;;;6.82;;
75584;SDS011;64162;53.508;10.476;2024-02-21T06:28:06;14.98;;;6.43;;
75584;SDS011;64162;53.508;10.476;2024-02-21T06:30:33;11.52;;;5.65;;
75584;SDS011;64162;53.508;10.476;2024-02-21T06:32:59;15.48;;;6.80;;
75584;SDS011;64162;53.508;10.476;2024-02-21T06:35:27;11.10;;;5.15;;
75584;SDS011;64162;53.508;10.476;2024-02-21T06:38:01;12.98;;;6.53;;
75584;SDS011;64162;53.508;10.476;2024-02-21T06:40:31;11.27;;;5.53;;
75584;SDS011;64162;53.508;10.476;2024-02-21T06:43:04;10.02;;;5.25;;
75584;SDS011;64162;53.508;10.476;2024-02-21T06:45:31;13.85;;;6.47;;
75584;SDS011;64162;53.508;10.476;2024-02-21T06:48:02;10.45;;;5.38;;
75584;SDS011;64162;53.508;10.476;2024-02-21T06:50:34;15.02;;;6.32;;
75584;SDS011;64162;53.508;10.476;2024-02-21T06:53:01;11.13;;;5.20;;
75584;SDS011;64162;53.508;10.476;2024-02-21T06:55:27;12.48;;;5.68;;
75584;SDS011;64162;53.508;10.476;2024-02-21T06:57:54;14.07;;;6.47;;
75584;SDS011;64162;53.508;10.476;2024-02-21T07:00:21;13.27;;;6.40;;
75584;SDS011;64162;53.508;10.476;2024-02-21T07:02:49;11.05;;;5.78;;
75584;SDS011;64162;53.508;10.476;2024-02-21T07:05:16;8.18;;;4.32;;
75584;SDS011;64162;53.508;10.476;2024-02-21T07:07:42;10.48;;;5.35;;
75584;SDS011;64162;53.508;10.476;2024-02-21T07:10:09;12.98;;;5.90;;
75584;SDS011;64162;53.508;10.476;2024-02-21T07:12:37;4.60;;;3.10;;
75584;SDS011;64162;53.508;10.476;2024-02-21T07:15:09;10.95;;;4.32;;
75584;SDS011;64162;53.508;10.476;2024-02-21T07:17:36;10.93;;;5.40;;
75584;SDS011;64162;53.508;10.476;2024-02-21T07:20:03;11.05;;;4.03;;
75584;SDS011;64162;53.508;10.476;2024-02-21T07:22:30;8.93;;;4.05;;
75584;SDS011;64162;53.508;10.476;2024-02-21T07:24:57;9.88;;;4.80;;
75584;SDS011;64162;53.508;10.476;2024-02-21T07:27:30;11.40;;;4.82;;
75584;SDS011;64162;53.508;10.476;2024-02-21T07:30:00;11.07;;;5.20;;
75584;SDS011;64162;53.508;10.476;2024-02-21T07:32:27;10.23;;;5.03;;
75584;SDS011;64162;53.508;10.476;2024-02-21T07:34:54;8.52;;;4.50;;
75584;SDS011;64162;53.508;10.476;2024-02-21T07:37:23;12.65;;;5.75;;
75584;SDS011;64162;53.508;10.476;2024-02-21T07:39:50;11.55;;;5.88;;
75584;SDS011;64162;53.508;10.476;2024-02-21T07:42:17;9.65;;;5.25;;
75584;SDS011;64162;53.508;10.476;2024-02-21T07:44:45;12.27;;;5.40;;
75584;SDS011;64162;53.508;10.476;2024-02-21T07:47:11;8.90;;;5.13;;
75584;SDS011;64162;53.508;10.476;2024-02-21T07:49:40;9.43;;;4.22;;
75584;SDS011;64162;53.508;10.476;2024-02-21T07:52:16;8.27;;;4.18;;
75584;SDS011;64162;53.508;10.476;2024-02-21T07:54:46;9.13;;;5.07;;
75584;SDS011;64162;53.508;10.476;2024-02-21T07:57:15;9.55;;;4.05;;
75584;SDS011;64162;53.508;10.476;2024-02-21T07:59:42;7.63;;;3.63;;
75584;SDS011;64162;53.508;10.476;2024-02-21T08:02:08;8.60;;;3.95;;
75584;SDS011;64162;53.508;10.476;2024-02-21T08:04:38;6.57;;;3.50;;
75584;SDS011;64162;53.508;10.476;2024-02-21T08:07:05;6.70;;;3.67;;
75584;SDS011;64162;53.508;10.476;2024-02-21T08:09:31;8.38;;;4.13;;
75584;SDS011;64162;53.508;10.476;2024-02-21T08:12:04;7.20;;;3.88;;
75584;SDS011;64162;53.508;10.476;2024-02-21T08:14:33;6.38;;;2.95;;
75584;SDS011;64162;53.508;10.476;2024-02-21T08:17:00;7.05;;;2.80;;
75584;SDS011;64162;53.508;10.476;2024-02-21T08:19:29;5.43;;;3.30;;
75584;SDS011;64162;53.508;10.476;2024-02-21T08:21:56;7.32;;;3.08;;
75584;SDS011;64162;53.508;10.476;2024-02-21T08:24:23;4.20;;;2.33;;
75584;SDS011;64162;53.508;10.476;2024-02-21T08:26:53;4.00;;;2.17;;
75584;SDS011;64162;53.508;10.476;2024-02-21T08:29:19;4.90;;;2.90;;
75584;SDS011;64162;53.508;10.476;2024-02-21T08:31:46;6.05;;;3.25;;
75584;SDS011;64162;53.508;10.476;2024-02-21T08:34:13;5.53;;;3.28;;
75584;SDS011;64162;53.508;10.476;2024-02-21T08:36:40;6.22;;;3.20;;
75584;SDS011;64162;53.508;10.476;2024-02-21T08:39:06;4.93;;;2.90;;
75584;SDS011;64162;53.508;10.476;2024-02-21T08:41:37;4.72;;;2.58;;
75584;SDS011;64162;53.508;10.476;2024-02-21T08:44:11;4.30;;;2.65;;
75584;SDS011;64162;53.508;10.476;2024-02-21T08:46:39;4.93;;;2.55;;
75584;SDS011;64162;53.508;10.476;2024-02-21T08:49:12;5.50;;;2.72;;
75584;SDS011;64162;53.508;10.476;2024-02-21T08:51:42;4.50;;;2.42;;
75584;SDS011;64162;53.508;10.476;2024-02-21T08:54:09;5.18;;;2.80;;
75584;SDS011;64162;53.508;10.476;2024-02-21T08:56:36;4.82;;;2.78;;
75584;SDS011;64162;53.508;10.476;2024-02-21T08:59:03;6.55;;;2.95;;
75584;SDS011;64162;53.508;10.476;2024-02-21T09:01:30;4.45;;;2.78;;
75584;SDS011;64162;53.508;10.476;2024-02-21T09:04:00;4.70;;;2.35;;
75584;SDS011;64162;53.508;10.476;2024-02-21T09:06:29;4.82;;;2.67;;
75584;SDS011;64162;53.508;10.476;2024-02-21T09:08:56;4.68;;;2.67;;
75584;SDS011;64162;53.508;10.476;2024-02-21T09:11:24;4.82;;;2.63;;
75584;SDS011;64162;53.508;10.476;2024-02-21T09:13:51;4.63;;;2.80;;
75584;SDS011;64162;53.508;10.476;2024-02-21T09:16:17;6.28;;;2.50;;
75584;SDS011;64162;53.508;10.476;2024-02-21T09:18:44;4.43;;;2.63;;
75584;SDS011;64162;53.508;10.476;2024-02-21T09:21:11;3.75;;;2.22;;
75584;SDS011;64162;53.508;10.476;2024-02-21T09:23:37;3.85;;;1.90;;
75584;SDS011;64162;53.508;10.476;2024-02-21T09:26:07;4.13;;;2.00;;
75584;SDS011;64162;53.508;10.476;2024-02-21T09:28:37;5.28;;;2.13;;
75584;SDS011;64162;53.508;10.476;2024-02-21T09:31:04;3.83;;;2.30;;
75584;SDS011;64162;53.508;10.476;2024-02-21T09:33:30;3.50;;;1.67;;
75584;SDS011;64162;53.508;10.476;2024-02-21T09:35:57;5.35;;;2.08;;
75584;SDS011;64162;53.508;10.476;2024-02-21T09:38:25;4.35;;;2.15;;
75584;SDS011;64162;53.508;10.476;2024-02-21T09:40:58;4.07;;;2.08;;
75584;SDS011;64162;53.508;10.476;2024-02-21T09:43:28;2.45;;;1.65;;
75584;SDS011;64162;53.508;10.476;2024-02-21T09:45:55;7.82;;;2.13;;
75584;SDS011;64162;53.508;10.476;2024-02-21T09:48:42;3.35;;;1.85;;
75584;SDS011;64162;53.508;10.476;2024-02-21T09:51:32;8.77;;;2.50;;
75584;SDS011;64162;53.508;10.476;2024-02-21T09:54:03;5.63;;;2.08;;
75584;SDS011;64162;53.508;10.476;2024-02-21T09:56:36;4.35;;;2.00;;
75584;SDS011;64162;53.508;10.476;2024-02-21T09:59:03;4.50;;;2.08;;
75584;SDS011;64162;53.508;10.476;2024-02-21T10:01:33;4.80;;;2.03;;
75584;SDS011;64162;53.508;10.476;2024-02-21T10:03:59;4.93;;;1.90;;
75584;SDS011;64162;53.508;10.476;2024-02-21T10:06:26;6.82;;;2.58;;
75584;SDS011;64162;53.508;10.476;2024-02-21T10:08:53;5.97;;;2.50;;
75584;SDS011;64162;53.508;10.476;2024-02-21T10:11:26;4.43;;;2.08;;
75584;SDS011;64162;53.508;10.476;2024-02-21T10:14:05;3.13;;;1.70;;
75584;SDS011;64162;53.508;10.476;2024-02-21T10:16:33;4.30;;;2.40;;
75584;SDS011;64162;53.508;10.476;2024-02-21T10:19:00;2.83;;;2.15;;
75584;SDS011;64162;53.508;10.476;2024-02-21T10:21:27;6.28;;;2.45;;
75584;SDS011;64162;53.508;10.476;2024-02-21T10:23:54;4.60;;;2.28;;
75584;SDS011;64162;53.508;10.476;2024-02-21T10:26:20;4.53;;;2.53;;
75584;SDS011;64162;53.508;10.476;2024-02-21T10:28:48;4.55;;;2.90;;
75584;SDS011;64162;53.508;10.476;2024-02-21T10:31:21;3.58;;;2.30;;
75584;SDS011;64162;53.508;10.476;2024-02-21T10:36:22;8.43;;;4.00;;
75584;SDS011;64162;53.508;10.476;2024-02-21T10:38:51;7.13;;;3.90;;
75584;SDS011;64162;53.508;10.476;2024-02-21T10:41:19;9.32;;;4.32;;
75584;SDS011;64162;53.508;10.476;2024-02-21T10:43:49;9.15;;;4.80;;
75584;SDS011;64162;53.508;10.476;2024-02-21T10:46:26;13.45;;;5.75;;
75584;SDS011;64162;53.508;10.476;2024-02-21T10:48:59;12.43;;;5.53;;
75584;SDS011;64162;53.508;10.476;2024-02-21T10:51:32;10.82;;;5.15;;
75584;SDS011;64162;53.508;10.476;2024-02-21T10:54:27;17.35;;;7.05;;
75584;SDS011;64162;53.508;10.476;2024-02-21T10:57:06;13.18;;;6.05;;
75584;SDS011;64162;53.508;10.476;2024-02-21T10:59:36;14.73;;;6.20;;
75584;SDS011;64162;53.508;10.476;2024-02-21T11:02:05;18.75;;;6.38;;
75584;SDS011;64162;53.508;10.476;2024-02-21T11:04:33;15.13;;;6.95;;
75584;SDS011;64162;53.508;10.476;2024-02-21T11:07:03;14.52;;;5.90;;
75584;SDS011;64162;53.508;10.476;2024-02-21T11:09:34;19.52;;;7.40;;
75584;SDS011;64162;53.508;10.476;2024-02-21T11:12:02;14.43;;;6.40;;
75584;SDS011;64162;53.508;10.476;2024-02-21T11:14:30;17.85;;;7.32;;
75584;SDS011;64162;53.508;10.476;2024-02-21T11:17:14;16.42;;;7.28;;
75584;SDS011;64162;53.508;10.476;2024-02-21T11:19:42;15.73;;;5.68;;
75584;SDS011;64162;53.508;10.476;2024-02-21T11:22:16;18.48;;;8.05;;
75584;SDS011;64162;53.508;10.476;2024-02-21T11:24:44;19.40;;;7.50;;
75584;SDS011;64162;53.508;10.476;2024-02-21T11:27:20;20.42;;;8.10;;
75584;SDS011;64162;53.508;10.476;2024-02-21T11:29:48;15.93;;;7.72;;
75584;SDS011;64162;53.508;10.476;2024-02-21T11:32:19;19.00;;;8.15;;
75584;SDS011;64162;53.508;10.476;2024-02-21T11:35:02;20.50;;;8.23;;
75584;SDS011;64162;53.508;10.476;2024-02-21T11:37:31;13.38;;;6.25;;
75584;SDS011;64162;53.508;10.476;2024-02-21T11:40:05;15.95;;;7.13;;
75584;SDS011;64162;53.508;10.476;2024-02-21T11:42:36;19.48;;;7.63;;
75584;SDS011;64162;53.508;10.476;2024-02-21T11:45:06;14.48;;;6.35;;
75584;SDS011;64162;53.508;10.476;2024-02-21T11:47:35;21.27;;;7.38;;
75584;SDS011;64162;53.508;10.476;2024-02-21T11:50:09;12.93;;;6.85;;
75584;SDS011;64162;53.508;10.476;2024-02-21T11:52:36;19.33;;;7.05;;
75584;SDS011;64162;53.508;10.476;2024-02-21T11:55:05;17.83;;;6.97;;
75584;SDS011;64162;53.508;10.476;2024-02-21T11:57:37;13.90;;;6.15;;
75584;SDS011;64162;53.508;10.476;2024-02-21T12:00:12;17.05;;;6.63;;
75584;SDS011;64162;53.508;10.476;2024-02-21T12:02:42;16.23;;;5.95;;
75584;SDS011;64162;53.508;10.476;2024-02-21T12:05:09;13.18;;;6.97;;
75584;SDS011;64162;53.508;10.476;2024-02-21T12:07:36;12.52;;;5.28;;
75584;SDS011;64162;53.508;10.476;2024-02-21T12:10:13;15.35;;;6.70;;
75584;SDS011;64162;53.508;10.476;2024-02-21T12:12:40;14.07;;;5.53;;
75584;SDS011;64162;53.508;10.476;2024-02-21T12:15:07;10.55;;;4.65;;
75584;SDS011;64162;53.508;10.476;2024-02-21T12:17:37;14.52;;;5.95;;
75584;SDS011;64162;53.508;10.476;2024-02-21T12:20:12;12.88;;;5.53;;
75584;SDS011;64162;53.508;10.476;2024-02-21T12:22:38;14.02;;;5.70;;
75584;SDS011;64162;53.508;10.476;2024-02-21T12:28:02;11.10;;;5.10;;
75584;SDS011;64162;53.508;10.476;2024-02-21T12:30:30;13.57;;;6.10;;
75584;SDS011;64162;53.508;10.476;2024-02-21T12:32:59;13.10;;;5.85;;
75584;SDS011;64162;53.508;10.476;2024-02-21T12:35:29;14.80;;;5.30;;
75584;SDS011;64162;53.508;10.476;2024-02-21T12:38:01;11.63;;;5.68;;
75584;SDS011;64162;53.508;10.476;2024-02-21T12:40:30;12.73;;;5.82;;
75584;SDS011;64162;53.508;10.476;2024-02-21T12:42:59;14.38;;;5.85;;
75584;SDS011;64162;53.508;10.476;2024-02-21T12:45:29;13.23;;;5.78;;
75584;SDS011;64162;53.508;10.476;2024-02-21T12:47:56;14.75;;;6.38;;
75584;SDS011;64162;53.508;10.476;2024-02-21T12:50:25;12.95;;;5.22;;
75584;SDS011;64162;53.508;10.476;2024-02-21T12:52:52;13.95;;;5.93;;
75584;SDS011;64162;53.508;10.476;2024-02-21T12:55:19;14.07;;;5.93;;
75584;SDS011;64162;53.508;10.476;2024-02-21T12:57:46;12.85;;;6.40;;
75584;SDS011;64162;53.508;10.476;2024-02-21T13:00:13;13.90;;;7.18;;
75584;SDS011;64162;53.508;10.476;2024-02-21T13:02:40;13.55;;;6.47;;
75584;SDS011;64162;53.508;10.476;2024-02-21T13:05:07;12.45;;;6.55;;
75584;SDS011;64162;53.508;10.476;2024-02-21T13:07:34;20.33;;;6.90;;
75584;SDS011;64162;53.508;10.476;2024-02-21T13:10:03;16.80;;;7.55;;
75584;SDS011;64162;53.508;10.476;2024-02-21T13:12:32;17.45;;;6.82;;
75584;SDS011;64162;53.508;10.476;2024-02-21T13:14:59;14.18;;;7.30;;
75584;SDS011;64162;53.508;10.476;2024-02-21T13:17:25;16.98;;;8.52;;
75584;SDS011;64162;53.508;10.476;2024-02-21T13:19:58;19.70;;;8.45;;
75584;SDS011;64162;53.508;10.476;2024-02-21T13:22:25;20.23;;;8.45;;
75584;SDS011;64162;53.508;10.476;2024-02-21T13:24:53;16.35;;;7.57;;
75584;SDS011;64162;53.508;10.476;2024-02-21T13:27:23;18.33;;;8.65;;
75584;SDS011;64162;53.508;10.476;2024-02-21T13:29:50;18.83;;;8.57;;
75584;SDS011;64162;53.508;10.476;2024-02-21T13:32:19;17.27;;;8.32;;
75584;SDS011;64162;53.508;10.476;2024-02-21T13:34:46;15.98;;;9.07;;
75584;SDS011;64162;53.508;10.476;2024-02-21T13:37:16;21.98;;;9.02;;
75584;SDS011;64162;53.508;10.476;2024-02-21T13:39:43;18.77;;;7.93;;
75584;SDS011;64162;53.508;10.476;2024-02-21T13:42:09;17.60;;;9.20;;
75584;SDS011;64162;53.508;10.476;2024-02-21T13:44:36;18.00;;;9.45;;
75584;SDS011;64162;53.508;10.476;2024-02-21T13:47:03;16.92;;;8.25;;
75584;SDS011;64162;53.508;10.476;2024-02-21T13:49:30;21.55;;;9.15;;
75584;SDS011;64162;53.508;10.476;2024-02-21T13:51:57;16.65;;;8.95;;
75584;SDS011;64162;53.508;10.476;2024-02-21T13:54:24;16.75;;;8.05;;
75584;SDS011;64162;53.508;10.476;2024-02-21T13:56:51;18.63;;;8.85;;
75584;SDS011;64162;53.508;10.476;2024-02-21T13:59:18;19.10;;;7.97;;
75584;SDS011;64162;53.508;10.476;2024-02-21T14:01:45;15.65;;;8.30;;
75584;SDS011;64162;53.508;10.476;2024-02-21T14:04:19;16.10;;;7.72;;
75584;SDS011;64162;53.508;10.476;2024-02-21T14:06:48;18.55;;;8.43;;
75584;SDS011;64162;53.508;10.476;2024-02-21T14:09:15;15.98;;;8.27;;
75584;SDS011;64162;53.508;10.476;2024-02-21T14:11:42;18.55;;;8.77;;
75584;SDS011;64162;53.508;10.476;2024-02-21T14:14:10;16.50;;;8.25;;
75584;SDS011;64162;53.508;10.476;2024-02-21T14:16:37;15.40;;;8.00;;
75584;SDS011;64162;53.508;10.476;2024-02-21T14:19:04;16.42;;;7.90;;
75584;SDS011;64162;53.508;10.476;2024-02-21T14:21:31;16.88;;;7.63;;
75584;SDS011;64162;53.508;10.476;2024-02-21T14:23:57;19.85;;;8.27;;
75584;SDS011;64162;53.508;10.476;2024-02-21T14:26:24;13.25;;;7.95;;
75584;SDS011;64162;53.508;10.476;2024-02-21T14:28:51;18.48;;;8.18;;
75584;SDS011;64162;53.508;10.476;2024-02-21T14:31:18;18.23;;;7.60;;
75584;SDS011;64162;53.508;10.476;2024-02-21T14:33:44;19.63;;;8.38;;
75584;SDS011;64162;53.508;10.476;2024-02-21T14:36:12;18.13;;;8.05;;
75584;SDS011;64162;53.508;10.476;2024-02-21T14:38:39;15.98;;;8.27;;
75584;SDS011;64162;53.508;10.476;2024-02-21T14:41:06;15.20;;;8.07;;
75584;SDS011;64162;53.508;10.476;2024-02-21T14:43:36;15.00;;;7.97;;